Time;durP1;ratioP1;P1;durP2;ratioP2;P2;SDS_P1;SDS_P2;PMS_P1;PMS_P2;Temp;Humidity;BMP_temperature;BMP_pressure;BME280_temperature;BME280_humidity;BME280_pressure;Samples;Min_cycle;Max_cycle;Signal;HPM_P1;HPM_P2
2022/06/04 00:01:39;;;;;;;12.00;7.63;;;;;;;19.65;98.93;99974.53;5012360;28;20053;-64
2022/06/04 00:04:04;;;;;;;11.30;7.32;;;;;;;19.63;98.75;99979.16;5012171;28;20112;-64
2022/06/04 00:06:30;;;;;;;10.38;7.43;;;;;;;19.64;99.05;99978.19;5011968;28;20374;-64
2022/06/04 00:08:55;;;;;;;10.75;7.53;;;;;;;19.62;99.17;99981.00;5011953;28;20048;-64
2022/06/04 00:16:49;;;;;;;10.55;7.38;;;;;;;19.36;99.63;99968.44;5009505;28;20028;-64
2022/06/04 00:19:14;;;;;;;9.82;7.25;;;;;;;19.40;100.00;99982.59;5008687;28;20025;-64
2022/06/04 00:21:40;;;;;;;9.50;7.18;;;;;;;19.34;100.00;99977.63;5009196;28;20377;-64
2022/06/04 00:24:06;;;;;;;11.73;7.82;;;;;;;19.30;100.00;99974.28;5009017;28;20073;-64
2022/06/04 00:26:31;;;;;;;10.52;7.65;;;;;;;19.24;100.00;99963.03;5008509;28;20050;-64
2022/06/04 00:28:57;;;;;;;12.50;6.72;;;;;;;19.25;100.00;99946.72;5010479;28;20026;-64
2022/06/04 00:31:22;;;;;;;9.23;7.32;;;;;;;19.26;100.00;99947.56;5010401;28;20469;-64
2022/06/04 00:33:48;;;;;;;10.32;7.10;;;;;;;19.22;100.00;99943.38;5011645;28;20461;-64
2022/06/04 00:36:13;;;;;;;10.93;6.90;;;;;;;19.19;100.00;99940.91;5011824;28;20014;-64
2022/06/04 00:38:39;;;;;;;10.23;7.68;;;;;;;19.15;100.00;99947.44;5011663;28;20034;-65
2022/06/04 00:41:23;;;;;;;10.70;6.97;;;;;;;19.15;100.00;99947.44;5011732;28;20033;-64
2022/06/04 00:44:01;;;;;;;10.65;7.47;;;;;;;19.10;100.00;99952.28;5011637;28;20048;-64
2022/06/04 00:46:41;;;;;;;9.40;7.47;;;;;;;19.07;100.00;99952.50;4998086;28;20088;-64
2022/06/04 00:49:07;;;;;;;12.60;7.75;;;;;;;19.05;100.00;99967.91;4991793;28;20421;-64
2022/06/04 00:51:33;;;;;;;12.00;8.30;;;;;;;19.04;100.00;99982.38;5010864;28;20088;-64
2022/06/04 00:53:59;;;;;;;11.75;8.32;;;;;;;18.98;100.00;99983.66;5011344;28;20478;-64
2022/06/04 00:56:47;;;;;;;16.33;8.32;;;;;;;19.04;100.00;99990.47;5011447;28;20083;-63
2022/06/04 00:59:15;;;;;;;12.98;7.78;;;;;;;19.03;100.00;99994.13;5011746;28;20026;-63
2022/06/04 01:01:46;;;;;;;12.93;8.15;;;;;;;19.04;100.00;99998.56;5011071;28;20041;-63
2022/06/04 01:04:48;;;;;;;11.82;8.50;;;;;;;19.09;100.00;100007.19;5010855;28;20025;-63
2022/06/04 01:07:32;;;;;;;11.75;8.65;;;;;;;19.12;100.00;100001.59;5011290;28;20037;-63
2022/06/04 01:10:07;;;;;;;14.27;8.95;;;;;;;19.13;100.00;100003.31;5011216;28;20084;-63
2022/06/04 01:12:58;;;;;;;11.25;8.00;;;;;;;19.09;100.00;100007.19;5011336;28;20117;-63
2022/06/04 01:16:01;;;;;;;11.23;7.78;;;;;;;19.06;100.00;100007.41;5009411;28;20413;-64
2022/06/04 01:18:54;;;;;;;11.70;7.80;;;;;;;19.03;100.00;100010.28;5009227;28;20029;-64
2022/06/04 01:21:22;;;;;;;12.35;7.07;;;;;;;18.93;100.00;100009.22;5001458;28;20512;-64
2022/06/04 01:23:57;;;;;;;13.15;8.15;;;;;;;18.91;100.00;100013.81;5009422;28;20018;-63
2022/06/04 01:26:41;;;;;;;11.50;7.90;;;;;;;18.87;100.00;100010.47;5008708;28;20052;-64
2022/06/04 01:29:13;;;;;;;10.65;7.53;;;;;;;18.89;100.00;100015.75;5009062;28;20037;-63
2022/06/04 01:31:51;;;;;;;11.02;6.93;;;;;;;18.89;100.00;100008.53;5011130;28;20045;-63
2022/06/04 01:34:22;;;;;;;11.57;7.60;;;;;;;18.85;100.00;100019.59;5010879;28;20033;-63
2022/06/04 01:36:56;;;;;;;11.25;7.88;;;;;;;18.83;100.00;100010.78;5010426;28;20022;-63
2022/06/04 01:39:27;;;;;;;20.05;8.40;;;;;;;18.82;100.00;100011.72;5011052;28;20034;-63
2022/06/04 01:41:59;;;;;;;24.33;8.60;;;;;;;18.81;100.00;100010.00;5011089;28;20037;-63
2022/06/04 01:44:36;;;;;;;30.83;8.70;;;;;;;18.76;100.00;100010.31;5010841;28;20130;-63
2022/06/04 01:47:06;;;;;;;18.55;9.00;;;;;;;18.80;100.00;100005.56;5011005;28;20034;-63
2022/06/04 01:49:39;;;;;;;16.90;9.25;;;;;;;18.81;100.00;100018.97;5010787;28;20036;-63
2022/06/04 01:52:15;;;;;;;17.70;9.25;;;;;;;18.78;100.00;100010.22;5010827;28;20477;-63
2022/06/04 01:54:55;;;;;;;17.83;9.95;;;;;;;18.74;100.00;100008.69;5011025;28;20029;-63
2022/06/04 01:57:44;;;;;;;17.75;9.30;;;;;;;18.75;100.00;100007.69;5011264;28;20037;-63
2022/06/04 02:00:22;;;;;;;15.52;9.55;;;;;;;18.73;100.00;100015.88;5000050;28;20442;-63
2022/06/04 02:03:07;;;;;;;14.02;9.40;;;;;;;18.73;100.00;100009.66;5011167;28;20091;-64
2022/06/04 02:05:38;;;;;;;17.88;8.70;;;;;;;18.73;100.00;100006.97;5010619;28;20045;-64
2022/06/04 02:08:08;;;;;;;13.60;9.18;;;;;;;18.81;100.00;100005.50;5010309;28;20033;-64
2022/06/04 02:10:40;;;;;;;13.00;9.02;;;;;;;18.84;100.00;100002.59;5010035;28;20056;-64
2022/06/04 02:13:09;;;;;;;10.98;7.97;;;;;;;18.89;100.00;99991.50;5012338;28;20074;-64
2022/06/04 02:15:50;;;;;;;13.20;8.65;;;;;;;18.91;100.00;100003.03;5013741;28;20440;-64
2022/06/04 02:18:16;;;;;;;12.82;9.80;;;;;;;18.93;100.00;99996.56;5013882;28;20185;-64
2022/06/04 02:20:41;;;;;;;14.05;9.70;;;;;;;18.99;100.00;100000.69;5012696;28;20034;-64
2022/06/04 02:23:07;;;;;;;13.40;9.82;;;;;;;18.97;100.00;99989.16;5011386;28;20034;-64
2022/06/04 02:25:33;;;;;;;13.85;9.00;;;;;;;18.95;100.00;99988.38;5011608;28;20093;-64
2022/06/04 02:27:59;;;;;;;12.73;8.50;;;;;;;18.92;100.00;99988.59;5011757;28;20054;-64
2022/06/04 02:30:40;;;;;;;13.50;9.35;;;;;;;18.85;100.00;99984.56;5011444;28;20029;-64
2022/06/04 02:33:32;;;;;;;14.35;9.00;;;;;;;18.80;100.00;99984.00;5011518;28;20030;-64
2022/06/04 02:36:06;;;;;;;14.13;9.18;;;;;;;18.76;100.00;99982.50;5011848;28;20080;-64
2022/06/04 02:38:54;;;;;;;14.77;9.13;;;;;;;18.77;100.00;99978.81;5013583;28;20037;-64
2022/06/04 02:41:39;;;;;;;14.68;9.50;;;;;;;18.75;100.00;99988.84;5013154;28;20022;-64
2022/06/04 02:44:26;;;;;;;13.20;8.50;;;;;;;18.74;100.00;99977.22;5013538;28;20052;-64
2022/06/04 02:47:11;;;;;;;11.00;8.63;;;;;;;18.71;100.00;99968.47;4996353;28;20416;-64
2022/06/04 02:50:16;;;;;;;14.00;9.82;;;;;;;18.72;100.00;99970.19;5009748;28;20030;-64
2022/06/04 02:52:45;;;;;;;15.00;9.70;;;;;;;18.77;100.00;99970.75;4990368;28;20041;-64
2022/06/04 02:55:24;;;;;;;13.65;9.45;;;;;;;18.82;100.00;99976.69;5013641;28;20516;-64
2022/06/04 02:57:53;;;;;;;16.98;11.43;;;;;;;18.89;100.00;99978.00;5013669;28;20033;-64
2022/06/04 03:00:21;;;;;;;19.40;12.25;;;;;;;19.00;100.00;99975.44;5013767;28;20425;-64
2022/06/04 03:02:47;;;;;;;16.15;12.27;;;;;;;19.04;100.00;99971.59;5013468;28;20025;-64
2022/06/04 03:05:20;;;;;;;18.13;12.50;;;;;;;19.06;100.00;99966.97;5013200;28;20034;-64
2022/06/04 03:07:49;;;;;;;18.17;11.07;;;;;;;19.07;100.00;99974.06;5013298;28;20033;-64
2022/06/04 03:10:19;;;;;;;20.98;12.35;;;;;;;19.09;100.00;99975.69;5012917;28;20084;-64
2022/06/04 03:12:45;;;;;;;15.52;11.85;;;;;;;19.07;100.00;99983.03;5013231;28;20084;-64
2022/06/04 03:15:11;;;;;;;19.35;12.88;;;;;;;19.09;100.00;99988.31;5010230;28;20034;-64
2022/06/04 03:17:38;;;;;;;15.05;11.68;;;;;;;19.07;100.00;99988.44;5005080;28;20108;-64
2022/06/04 03:20:06;;;;;;;16.13;12.15;;;;;;;19.04;100.00;99985.94;5012773;28;20490;-64
2022/06/04 03:22:31;;;;;;;17.15;11.70;;;;;;;19.04;100.00;99967.06;5012905;28;20286;-64
2022/06/04 03:24:56;;;;;;;13.65;10.48;;;;;;;19.01;100.00;99944.84;5012659;28;20111;-64
2022/06/04 03:27:22;;;;;;;15.30;10.50;;;;;;;19.01;100.00;99951.09;5012574;28;20045;-64
2022/06/04 03:29:51;;;;;;;13.98;9.82;;;;;;;19.00;100.00;99953.88;5011805;28;20097;-64
2022/06/04 03:32:17;;;;;;;14.82;10.43;;;;;;;18.97;100.00;99956.78;5011209;28;20117;-64
2022/06/04 03:34:42;;;;;;;16.35;11.18;;;;;;;18.95;100.00;99956.03;5011174;28;20029;-64
2022/06/04 03:37:08;;;;;;;16.60;10.70;;;;;;;18.92;100.00;99948.16;5010301;28;20034;-64
2022/06/04 03:39:33;;;;;;;15.63;10.55;;;;;;;18.86;100.00;99951.28;5010867;28;20025;-64
2022/06/04 03:42:01;;;;;;;19.40;11.38;;;;;;;18.79;100.00;99958.91;5010678;28;20375;-64
2022/06/04 03:44:29;;;;;;;15.52;10.57;;;;;;;18.77;100.00;99962.66;5011385;28;20046;-64
2022/06/04 03:46:54;;;;;;;19.13;12.15;;;;;;;18.77;100.00;99973.44;5012399;28;20119;-64
2022/06/04 03:49:20;;;;;;;14.75;11.18;;;;;;;18.76;100.00;99993.28;5012581;28;20528;-64
2022/06/04 03:51:45;;;;;;;16.33;10.93;;;;;;;18.71;100.00;99992.72;5012533;28;20108;-64
2022/06/04 03:54:11;;;;;;;16.30;11.27;;;;;;;18.75;100.00;100003.19;5012470;28;20041;-64
2022/06/04 03:56:37;;;;;;;18.52;11.52;;;;;;;18.78;100.00;100002.97;5012542;28;20070;-64
2022/06/04 03:59:03;;;;;;;16.08;11.70;;;;;;;18.82;100.00;100009.91;5012447;28;20033;-64
2022/06/04 04:01:30;;;;;;;16.15;11.18;;;;;;;18.89;100.00;100010.34;5012396;28;20040;-64
2022/06/04 04:03:57;;;;;;;18.90;11.05;;;;;;;18.97;100.00;100024.19;5012243;28;20017;-64
2022/06/04 04:06:26;;;;;;;14.52;11.35;;;;;;;19.00;100.00;100041.03;5012116;28;20021;-64
2022/06/04 04:08:52;;;;;;;14.32;10.80;;;;;;;19.07;100.00;100042.34;5012297;28;20561;-64
2022/06/04 04:11:21;;;;;;;19.75;12.52;;;;;;;19.15;100.00;100056.19;5012491;28;20119;-64
2022/06/04 04:13:47;;;;;;;20.58;12.48;;;;;;;19.14;100.00;100056.28;5012255;28;20101;-64
2022/06/04 04:16:14;;;;;;;20.85;12.13;;;;;;;19.23;100.00;100069.16;5011846;28;20018;-64
2022/06/04 04:18:40;;;;;;;19.05;12.10;;;;;;;19.31;100.00;100066.81;5012165;28;20389;-64
2022/06/04 04:21:09;;;;;;;20.92;12.50;;;;;;;19.35;100.00;100071.06;5011715;28;20025;-64
2022/06/04 04:23:35;;;;;;;17.55;12.18;;;;;;;19.35;100.00;100073.75;5011770;28;20438;-64
2022/06/04 04:26:01;;;;;;;20.42;12.07;;;;;;;19.39;100.00;100086.06;5011794;28;20057;-64
2022/06/04 04:28:27;;;;;;;16.77;11.52;;;;;;;19.41;100.00;100079.59;5011311;28;20163;-64
2022/06/04 04:30:53;;;;;;;16.15;12.02;;;;;;;19.48;100.00;100075.53;5011975;28;20117;-64
2022/06/04 04:33:18;;;;;;;20.08;12.35;;;;;;;19.55;100.00;100090.31;5011607;28;20066;-64
2022/06/04 04:35:44;;;;;;;16.73;11.27;;;;;;;19.58;100.00;100089.25;5011248;28;20399;-64
2022/06/04 04:38:11;;;;;;;17.08;11.65;;;;;;;19.65;100.00;100099.50;5011444;28;20029;-64
2022/06/04 04:40:40;;;;;;;15.80;11.20;;;;;;;19.68;100.00;100114.66;5012009;28;20108;-64
2022/06/04 04:43:05;;;;;;;16.48;10.95;;;;;;;19.75;100.00;100121.38;5011729;28;20382;-64
2022/06/04 04:45:31;;;;;;;18.42;11.68;;;;;;;19.77;100.00;100124.81;4993464;28;20021;-64
2022/06/04 04:47:57;;;;;;;15.05;10.70;;;;;;;19.71;100.00;100111.72;5011674;28;20105;-63
2022/06/04 04:50:32;;;;;;;15.55;11.00;;;;;;;19.67;100.00;100129.97;5011610;28;20022;-63
2022/06/04 04:52:59;;;;;;;17.65;11.23;;;;;;;19.59;100.00;100120.66;5011338;28;20026;-63
2022/06/04 04:55:25;;;;;;;14.52;10.55;;;;;;;19.60;100.00;100100.81;5011104;28;20034;-63
2022/06/04 04:57:51;;;;;;;15.98;11.20;;;;;;;19.63;100.00;100112.28;5010103;28;20088;-63
2022/06/04 05:00:17;;;;;;;14.35;10.60;;;;;;;19.52;100.00;100124.75;5010324;28;20040;-63
2022/06/04 05:02:43;;;;;;;16.13;10.52;;;;;;;19.33;100.00;100130.50;5009958;28;20033;-63
2022/06/04 05:05:11;;;;;;;15.85;11.43;;;;;;;19.40;100.00;100139.94;5009906;28;20113;-63
2022/06/04 05:07:37;;;;;;;17.40;11.02;;;;;;;19.41;100.00;100128.16;5009630;28;20025;-63
2022/06/04 05:10:03;;;;;;;15.15;10.90;;;;;;;19.47;100.00;100143.94;5010230;28;20033;-63
2022/06/04 05:12:28;;;;;;;14.23;10.73;;;;;;;19.42;100.00;100158.72;5011158;28;20029;-63
2022/06/04 05:14:54;;;;;;;16.80;11.48;;;;;;;19.39;100.00;100156.19;5011385;28;20037;-63
2022/06/04 05:17:19;;;;;;;16.25;10.15;;;;;;;19.40;100.00;100158.81;5011086;28;20382;-63
2022/06/04 05:19:45;;;;;;;15.55;11.35;;;;;;;19.38;100.00;100157.19;5011127;28;20447;-63
2022/06/04 05:22:10;;;;;;;16.50;11.73;;;;;;;19.47;100.00;100159.28;5011080;28;20117;-63
2022/06/04 05:24:36;;;;;;;16.63;11.32;;;;;;;19.45;100.00;100163.91;5010980;28;20026;-63
2022/06/04 05:27:03;;;;;;;16.13;11.35;;;;;;;19.51;100.00;100166.19;5010834;28;20030;-63
2022/06/04 05:29:29;;;;;;;17.23;10.80;;;;;;;19.52;100.00;100165.25;5011245;28;20030;-63
2022/06/04 05:31:57;;;;;;;18.27;11.15;;;;;;;19.49;100.00;100168.09;5010764;28;20478;-63
2022/06/04 05:34:23;;;;;;;17.52;11.75;;;;;;;19.55;100.00;100155.06;5010469;28;20053;-63
2022/06/04 05:36:49;;;;;;;18.50;11.65;;;;;;;19.55;100.00;100156.94;5011174;28;20076;-63
2022/06/04 05:39:16;;;;;;;14.98;10.73;;;;;;;19.60;100.00;100144.00;5010970;28;20038;-63
2022/06/04 05:41:42;;;;;;;15.52;10.60;;;;;;;19.65;100.00;100136.47;5011060;28;20488;-63
2022/06/04 05:44:08;;;;;;;16.30;11.25;;;;;;;19.68;100.00;100136.25;5011259;28;20104;-63
2022/06/04 05:46:33;;;;;;;14.88;9.98;;;;;;;19.75;100.00;100115.09;5012316;28;20110;-63
2022/06/04 05:48:59;;;;;;;20.90;10.90;;;;;;;19.82;100.00;100114.56;5013966;28;20025;-63
2022/06/04 05:51:27;;;;;;;15.02;10.70;;;;;;;19.86;100.00;100116.09;5013716;28;20030;-63
2022/06/04 05:53:53;;;;;;;18.40;12.10;;;;;;;19.87;100.00;100115.09;5013379;28;20029;-63
2022/06/04 05:56:25;;;;;;;17.17;11.27;;;;;;;19.92;100.00;100107.56;5013525;28;20049;-63
2022/06/04 05:58:52;;;;;;;20.52;11.45;;;;;;;19.97;100.00;100113.50;5013095;28;20432;-64
2022/06/04 06:01:19;;;;;;;15.70;11.07;;;;;;;20.08;100.00;100118.16;5013503;28;20490;-64
2022/06/04 06:03:45;;;;;;;15.82;11.43;;;;;;;20.17;100.00;100125.66;5013886;28;20583;-64
2022/06/04 06:06:17;;;;;;;21.15;11.90;;;;;;;20.26;100.00;100133.97;5013468;28;20057;-64
2022/06/04 06:08:42;;;;;;;16.92;11.45;;;;;;;20.35;100.00;100122.53;5013306;28;20057;-64
2022/06/04 06:11:12;;;;;;;15.25;11.32;;;;;;;20.44;100.00;100102.09;5013793;28;20520;-64
2022/06/04 06:13:38;;;;;;;17.48;11.52;;;;;;;20.51;100.00;100101.53;5013235;28;20041;-64
2022/06/04 06:16:09;;;;;;;19.40;11.82;;;;;;;20.64;100.00;100091.56;5013944;28;20061;-64
2022/06/04 06:18:34;;;;;;;17.73;12.15;;;;;;;20.86;100.00;100086.31;5014009;28;20543;-64
2022/06/04 06:21:05;;;;;;;16.83;12.02;;;;;;;21.12;100.00;100091.69;5014263;28;20172;-64
2022/06/04 06:23:31;;;;;;;18.02;12.15;;;;;;;21.36;100.00;100114.19;5014079;28;20128;-64
2022/06/04 06:25:56;;;;;;;17.13;11.73;;;;;;;21.44;100.00;100128.00;5013615;28;20041;-64
2022/06/04 06:28:22;;;;;;;18.95;12.60;;;;;;;21.50;100.00;100141.09;5013884;28;20030;-64
2022/06/04 06:30:49;;;;;;;19.00;12.98;;;;;;;21.37;100.00;100151.09;5014169;28;20026;-64
2022/06/04 06:33:14;;;;;;;18.10;12.82;;;;;;;21.47;100.00;100146.72;5013997;28;20022;-64
2022/06/04 06:35:40;;;;;;;19.67;12.25;;;;;;;21.55;100.00;100145.16;5013707;28;20028;-64
2022/06/04 06:38:05;;;;;;;16.77;12.27;;;;;;;21.57;100.00;100155.88;5013311;28;20029;-64
2022/06/04 06:40:31;;;;;;;44.20;32.35;;;;;;;21.61;100.00;100149.25;5013795;28;20033;-64
2022/06/04 06:42:56;;;;;;;21.92;17.02;;;;;;;21.72;100.00;100141.19;5013702;28;20385;-64
2022/06/04 06:45:21;;;;;;;18.77;13.25;;;;;;;21.78;99.56;100127.19;5014043;28;20377;-64
2022/06/04 06:47:47;;;;;;;17.35;11.93;;;;;;;21.81;100.00;100135.94;5013772;28;20045;-64
2022/06/04 06:50:14;;;;;;;17.38;13.23;;;;;;;21.71;100.00;100140.31;5013696;28;20034;-64
2022/06/04 06:52:40;;;;;;;18.02;12.25;;;;;;;21.70;100.00;100137.72;5013470;28;20029;-64
2022/06/04 06:55:06;;;;;;;16.88;11.43;;;;;;;21.71;100.00;100139.47;5013511;28;20539;-64
2022/06/04 06:57:31;;;;;;;17.48;12.45;;;;;;;21.70;100.00;100133.19;5013122;28;20026;-64
2022/06/04 06:59:57;;;;;;;16.73;12.10;;;;;;;21.67;100.00;100132.53;5013111;28;20103;-64
2022/06/04 07:02:22;;;;;;;15.90;11.68;;;;;;;21.68;100.00;100134.28;5013503;28;20049;-64
2022/06/04 07:04:47;;;;;;;17.60;11.70;;;;;;;21.73;100.00;100126.69;5013246;28;20026;-64
2022/06/04 07:07:13;;;;;;;15.80;11.60;;;;;;;21.80;100.00;100127.94;5012706;28;20022;-64
2022/06/04 07:09:41;;;;;;;16.73;11.70;;;;;;;21.83;100.00;100127.72;5013681;28;20493;-64
2022/06/04 07:12:08;;;;;;;21.55;12.73;;;;;;;21.96;100.00;100133.91;5013339;28;20080;-64
2022/06/04 07:14:34;;;;;;;16.45;11.70;;;;;;;22.05;99.96;100133.22;5013268;28;20028;-64
2022/06/04 07:17:00;;;;;;;16.42;11.77;;;;;;;22.11;99.27;100127.28;5013030;28;20030;-64
2022/06/04 07:19:26;;;;;;;17.67;11.75;;;;;;;22.16;99.46;100125.97;5013324;28;20474;-64
2022/06/04 07:21:53;;;;;;;14.88;11.50;;;;;;;22.24;98.38;100122.63;5012941;28;20030;-64
2022/06/04 07:24:19;;;;;;;17.85;12.52;;;;;;;22.23;97.21;100131.75;5012461;28;20018;-64
2022/06/04 07:26:46;;;;;;;18.35;13.07;;;;;;;22.14;97.26;100140.63;5012560;28;20042;-63
2022/06/04 07:29:12;;;;;;;22.50;16.40;;;;;;;22.26;97.39;100146.94;5012734;28;20395;-62
2022/06/04 07:31:38;;;;;;;17.08;12.73;;;;;;;22.43;97.19;100141.91;5012966;28;20088;-62
2022/06/04 07:34:04;;;;;;;19.00;12.35;;;;;;;22.59;96.09;100139.72;5012744;28;20412;-64
2022/06/04 07:36:32;;;;;;;14.88;12.30;;;;;;;22.59;95.60;100133.44;5012933;28;20539;-64
2022/06/04 07:38:59;;;;;;;16.88;11.52;;;;;;;22.58;96.30;100146.16;5012485;28;20108;-63
2022/06/04 07:41:31;;;;;;;16.73;11.25;;;;;;;22.39;96.89;100137.69;5012669;28;20041;-64
2022/06/04 07:43:57;;;;;;;17.95;12.32;;;;;;;22.37;97.26;100142.41;5012456;28;20029;-63
2022/06/04 07:46:25;;;;;;;15.95;11.90;;;;;;;22.24;98.05;100128.06;5012631;28;20025;-63
2022/06/04 07:48:53;;;;;;;15.90;12.18;;;;;;;22.34;97.81;100136.34;5012294;28;20034;-63
2022/06/04 07:51:19;;;;;;;20.20;12.48;;;;;;;22.40;97.34;100133.16;5012630;28;20108;-63
2022/06/04 07:53:44;;;;;;;17.42;12.27;;;;;;;22.30;96.69;100138.44;5012267;28;20116;-63
2022/06/04 07:56:13;;;;;;;16.45;12.63;;;;;;;22.37;96.98;100142.41;5012747;28;20022;-63
2022/06/04 07:58:39;;;;;;;19.70;13.00;;;;;;;22.48;96.85;100147.81;5012902;28;20037;-63
2022/06/04 08:01:06;;;;;;;17.85;12.18;;;;;;;22.62;96.89;100144.91;5012532;28;20029;-63
2022/06/04 08:03:34;;;;;;;15.48;11.45;;;;;;;22.83;95.94;100145.03;5012024;28;20531;-63
2022/06/04 08:06:01;;;;;;;16.13;12.35;;;;;;;22.85;94.55;100149.34;5012103;28;20030;-63
2022/06/04 08:08:27;;;;;;;16.65;11.65;;;;;;;22.75;95.08;100153.78;5012324;28;20112;-63
2022/06/04 08:10:52;;;;;;;17.30;11.77;;;;;;;22.72;94.90;100143.19;5011442;28;20099;-63
2022/06/04 08:13:28;;;;;;;16.90;11.27;;;;;;;22.71;95.66;100149.59;5012216;28;20033;-63
2022/06/04 08:15:58;;;;;;;17.55;11.73;;;;;;;22.70;95.54;100157.88;5011944;28;20081;-63
2022/06/04 08:18:24;;;;;;;16.15;12.05;;;;;;;22.66;95.85;100150.94;5011136;28;20026;-63
2022/06/04 08:20:49;;;;;;;17.38;12.13;;;;;;;22.59;96.35;100161.41;5012263;28;20044;-63
2022/06/04 08:23:15;;;;;;;19.00;12.32;;;;;;;22.50;96.58;100164.84;5012187;28;20025;-63
2022/06/04 08:25:47;;;;;;;17.25;11.90;;;;;;;22.43;97.29;100170.84;5011507;28;20042;-63
2022/06/04 08:28:16;;;;;;;17.03;12.23;;;;;;;22.35;98.14;100178.72;5012258;28;20500;-63
2022/06/04 08:30:43;;;;;;;18.55;12.85;;;;;;;22.11;99.54;100192.31;4993368;28;20334;-63
2022/06/04 08:33:09;;;;;;;20.13;12.70;;;;;;;22.05;100.00;100193.69;5011916;28;20037;-63
2022/06/04 08:35:35;;;;;;;18.90;12.80;;;;;;;22.07;100.00;100193.56;5011553;28;20022;-63
2022/06/04 08:38:00;;;;;;;18.25;12.35;;;;;;;22.09;100.00;100195.16;5011848;28;20049;-63
2022/06/04 08:40:39;;;;;;;19.23;14.23;;;;;;;22.09;100.00;100199.72;5011623;28;20052;-63
2022/06/04 08:43:14;;;;;;;15.90;12.30;;;;;;;22.08;100.00;100197.97;5011408;28;20428;-63
2022/06/04 08:45:40;;;;;;;21.85;13.05;;;;;;;22.16;100.00;100200.97;5011274;28;20034;-63
2022/06/04 08:48:18;;;;;;;18.80;13.73;;;;;;;22.21;100.00;100204.19;5011474;28;20040;-63
2022/06/04 08:50:45;;;;;;;22.33;13.32;;;;;;;22.15;100.00;100208.25;5011426;28;20068;-63
2022/06/04 08:53:19;;;;;;;19.15;13.68;;;;;;;22.18;100.00;100201.72;5011663;28;20493;-63
2022/06/04 08:59:21;;;;;;;17.80;12.82;;;;;;;22.16;98.78;100220.81;5011789;28;19944;-63
2022/06/04 09:01:54;;;;;;;16.13;12.32;;;;;;;22.11;97.51;100222.13;4950217;29;20035;-63
2022/06/04 09:04:44;;;;;;;20.27;13.75;;;;;;;22.15;97.00;100220.94;4950833;29;20510;-63
2022/06/04 09:07:14;;;;;;;17.30;12.32;;;;;;;22.23;96.32;100223.03;4994477;28;20069;-63
2022/06/04 09:09:54;;;;;;;17.05;12.10;;;;;;;22.33;96.92;100224.94;5009737;28;20030;-63
2022/06/04 09:12:32;;;;;;;15.98;11.45;;;;;;;22.36;96.61;100227.41;5009680;28;20113;-63
2022/06/04 09:15:18;;;;;;;16.35;11.55;;;;;;;22.41;96.77;100227.91;5009801;28;20514;-63
2022/06/04 09:17:51;;;;;;;15.82;12.07;;;;;;;22.46;96.83;100231.13;5009762;28;20441;-63
2022/06/04 09:20:45;;;;;;;17.90;11.48;;;;;;;22.47;96.40;100234.72;5010908;28;20702;-63
2022/06/04 09:23:30;;;;;;;14.35;10.55;;;;;;;22.43;95.74;100233.19;5015184;28;20034;-63
2022/06/04 09:26:04;;;;;;;15.77;10.82;;;;;;;22.43;95.22;100231.38;5014680;28;20046;-63
2022/06/04 09:28:53;;;;;;;15.05;10.13;;;;;;;22.45;94.76;100232.13;5015173;28;20026;-63
2022/06/04 09:31:34;;;;;;;14.75;10.43;;;;;;;22.52;94.78;100229.78;5014799;28;20030;-63
2022/06/04 09:34:14;;;;;;;12.98;10.32;;;;;;;22.61;94.24;100237.22;5015440;28;20105;-63
2022/06/04 09:36:42;;;;;;;14.05;10.45;;;;;;;22.61;93.70;100251.66;5015041;28;20048;-63
2022/06/04 09:39:30;;;;;;;14.05;10.18;;;;;;;22.66;93.32;100246.75;5014775;28;20022;-63
2022/06/04 09:41:56;;;;;;;15.40;11.52;;;;;;;22.68;93.44;100252.91;5015005;28;20026;-63
2022/06/04 09:44:23;;;;;;;14.48;10.05;;;;;;;22.69;93.19;100254.63;5014967;28;20077;-63
2022/06/04 09:46:54;;;;;;;16.55;10.93;;;;;;;22.70;91.31;100259.06;5013448;28;20036;-63
2022/06/04 09:49:34;;;;;;;16.20;11.07;;;;;;;22.69;91.75;100254.63;5014396;28;20356;-63
2022/06/04 09:52:24;;;;;;;15.18;11.18;;;;;;;22.71;91.25;100247.25;5014795;28;20092;-63
2022/06/04 09:54:55;;;;;;;16.10;11.57;;;;;;;22.72;92.17;100253.50;5014694;28;20038;-63
2022/06/04 09:57:33;;;;;;;15.35;10.45;;;;;;;22.78;92.45;100255.75;5014435;28;20105;-63
2022/06/04 10:00:00;;;;;;;14.90;10.77;;;;;;;22.78;88.75;100253.91;5014724;28;20025;-63
2022/06/04 10:02:26;;;;;;;17.30;12.07;;;;;;;22.82;89.55;100262.66;5014369;28;20021;-63
2022/06/04 10:05:06;;;;;;;18.15;11.68;;;;;;;22.91;89.91;100253.78;5014425;28;20125;-63
2022/06/04 10:07:37;;;;;;;16.70;11.93;;;;;;;22.83;89.10;100234.56;5014570;28;20141;-62
2022/06/04 10:10:21;;;;;;;16.90;10.95;;;;;;;22.92;89.52;100250.97;5014311;28;20122;-62
2022/06/04 10:15:31;;;;;;;17.10;11.90;;;;;;;23.02;87.77;100261.94;5011039;28;20033;-62
2022/06/04 10:18:18;;;;;;;18.13;11.65;;;;;;;22.97;85.86;100256.00;5012654;28;20401;-62
2022/06/04 10:21:17;;;;;;;17.05;11.70;;;;;;;23.09;85.98;100263.19;4994039;28;20085;-62
2022/06/04 10:23:48;;;;;;;16.83;12.13;;;;;;;23.14;86.42;100260.97;5012653;28;20133;-62
2022/06/04 10:26:42;;;;;;;17.42;12.10;;;;;;;23.31;86.40;100258.66;5011897;28;20128;-62
2022/06/04 10:29:16;;;;;;;;;;;;;;;23.47;85.66;100257.41;5012773;28;20108;-62
2022/06/04 10:32:09;;;;;;;17.50;11.32;;;;;;;23.61;85.64;100265.28;5012359;28;19921;-62
2022/06/04 10:34:53;;;;;;;18.60;11.68;;;;;;;23.68;83.79;100271.94;5011440;28;20389;-62
2022/06/04 10:38:08;;;;;;;14.43;11.30;;;;;;;23.77;81.15;100265.75;5012498;28;20104;-63
2022/06/04 10:40:44;;;;;;;15.68;11.13;;;;;;;23.68;80.82;100286.38;5005819;28;20046;-62
2022/06/04 10:43:40;;;;;;;13.90;10.63;;;;;;;23.70;81.12;100275.38;5011955;28;20034;-62
2022/06/04 10:46:27;;;;;;;18.27;10.73;;;;;;;23.58;81.71;100276.38;5011499;28;20034;-62
2022/06/04 10:48:55;;;;;;;17.52;11.77;;;;;;;23.60;82.62;100268.97;5012116;28;20030;-62
2022/06/04 10:51:45;;;;;;;16.77;11.43;;;;;;;23.93;83.61;100277.06;5012060;28;20022;-62
2022/06/04 10:54:30;;;;;;;16.50;11.52;;;;;;;24.28;81.93;100277.72;5012089;28;20018;-62
2022/06/04 10:57:29;;;;;;;15.00;11.00;;;;;;;24.79;82.14;100284.16;4994415;28;20026;-62
2022/06/04 11:00:34;;;;;;;16.05;11.73;;;;;;;24.77;80.02;100275.25;5011567;28;20121;-62
2022/06/04 11:03:04;;;;;;;16.52;12.52;;;;;;;24.98;81.36;100265.22;4988313;28;20045;-62
2022/06/04 11:05:43;;;;;;;16.42;12.00;;;;;;;25.18;76.81;100275.22;4992212;28;20030;-62
2022/06/04 11:08:30;;;;;;;17.50;12.48;;;;;;;25.47;73.85;100269.94;4991987;28;20482;-62
2022/06/04 11:11:04;;;;;;;16.90;12.25;;;;;;;25.25;75.65;100270.97;4990289;28;20046;-62
2022/06/04 11:13:36;;;;;;;18.05;11.77;;;;;;;25.60;74.69;100265.94;4990264;28;20109;-62
2022/06/04 11:16:09;;;;;;;15.90;11.02;;;;;;;25.93;73.03;100267.44;5000791;28;20061;-62
2022/06/04 11:18:43;;;;;;;16.35;12.27;;;;;;;26.22;72.53;100252.03;5009842;28;20149;-62
2022/06/04 11:21:20;;;;;;;15.57;11.50;;;;;;;26.60;70.67;100251.16;5008807;28;20397;-62
2022/06/04 11:23:55;;;;;;;14.90;11.13;;;;;;;26.95;67.47;100254.13;5008952;28;20646;-62
2022/06/04 11:26:26;;;;;;;13.80;11.02;;;;;;;27.01;67.91;100251.66;5011083;28;20126;-62
2022/06/04 11:28:52;;;;;;;17.13;11.77;;;;;;;27.56;66.39;100249.88;5008833;28;20504;-62
2022/06/04 11:31:26;;;;;;;15.75;10.43;;;;;;;28.04;66.63;100257.84;5009982;28;20025;-62
2022/06/04 11:34:29;;;;;;;12.88;9.70;;;;;;;28.89;59.92;100247.13;4996803;28;20516;-62
2022/06/04 11:37:06;;;;;;;11.75;9.93;;;;;;;29.86;57.17;100246.66;4995604;28;20533;-62
2022/06/04 11:39:41;;;;;;;14.15;8.38;;;;;;;30.73;55.27;100242.31;5010641;28;20074;-62
2022/06/04 11:42:29;;;;;;;11.40;8.60;;;;;;;31.55;52.21;100243.91;5010775;28;20048;-62